createdAt,value
2024-02-13T00:02:46.562Z,85.56
2024-02-13T00:07:48.841Z,87.75
2024-02-13T00:12:52.290Z,86.92
2024-02-13T00:17:54.177Z,87.90
2024-02-13T00:22:56.681Z,87.31
2024-02-13T00:27:58.336Z,86.72
2024-02-13T00:33:00.047Z,86.40
2024-02-13T00:38:01.714Z,85.63
2024-02-13T00:43:03.395Z,86.88
2024-02-13T00:48:07.062Z,87.17
2024-02-13T00:53:11.634Z,87.60
2024-02-13T00:58:13.318Z,88.90
2024-02-13T01:03:15.039Z,88.81
2024-02-13T01:08:24.468Z,87.40
2024-02-13T01:13:27.432Z,88.45
2024-02-13T01:18:30.420Z,87.56
2024-02-13T01:23:32.119Z,88.01
2024-02-13T01:28:37.122Z,88.14
2024-02-13T01:33:38.863Z,88.47
2024-02-13T01:38:40.586Z,88.42
2024-02-13T01:43:42.279Z,88.53
2024-02-13T01:48:44.054Z,88.80
2024-02-13T01:53:46.297Z,88.09
2024-02-13T01:58:47.990Z,88.77
2024-02-13T02:03:51.397Z,89.01
2024-02-13T02:08:54.245Z,88.80
2024-02-13T02:13:56.974Z,88.70
2024-02-13T02:18:58.838Z,89.48
2024-02-13T02:24:01.274Z,90.18
2024-02-13T02:29:03.060Z,90.30
2024-02-13T02:34:04.739Z,89.81
2024-02-13T02:39:06.431Z,90.33
2024-02-13T02:44:09.860Z,89.94
2024-02-13T02:49:11.891Z,89.93
2024-02-13T02:54:14.749Z,90.11
2024-02-13T02:59:17.475Z,90.27
2024-02-13T03:04:19.363Z,89.82
2024-02-13T03:09:21.097Z,88.82
2024-02-13T03:14:22.794Z,89.02
2024-02-13T03:19:24.444Z,88.39
2024-02-13T03:24:26.057Z,87.83
2024-02-13T03:29:28.255Z,86.96
2024-02-13T03:34:29.935Z,86.71
2024-02-13T03:39:31.591Z,84.48
2024-02-13T03:44:33.549Z,82.79
2024-02-13T03:49:35.325Z,82.69
2024-02-13T03:54:37.178Z,82.73
2024-02-13T03:59:39.806Z,82.30
2024-02-13T04:04:41.450Z,82.78
2024-02-13T04:09:43.238Z,83.19
2024-02-13T04:14:45.031Z,83.23
2024-02-13T04:19:47.066Z,83.33
2024-02-13T04:24:48.760Z,83.58
2024-02-13T04:29:50.622Z,83.44
2024-02-13T04:34:52.436Z,83.35
2024-02-13T04:39:54.106Z,82.98
2024-02-13T04:44:57.653Z,83.91
2024-02-13T04:50:00.499Z,84.57
2024-02-13T04:55:02.223Z,86.27
2024-02-13T05:00:29.417Z,85.38
2024-02-13T05:05:50.120Z,85.37
2024-02-13T05:10:51.894Z,86.31
2024-02-13T05:15:53.527Z,85.94
2024-02-13T05:20:55.358Z,85.84
2024-02-13T05:25:58.176Z,85.20
2024-02-13T05:30:59.936Z,85.89
2024-02-13T05:36:03.234Z,85.25
2024-02-13T05:41:05.995Z,85.02
2024-02-13T05:46:07.616Z,85.27
2024-02-13T05:51:12.777Z,85.13
2024-02-13T05:56:23.441Z,84.30
2024-02-13T06:01:30.452Z,84.82
2024-02-13T06:06:32.375Z,85.35
2024-02-13T06:11:37.540Z,83.48
2024-02-13T06:16:39.242Z,83.81
2024-02-13T06:21:41.557Z,82.33
2024-02-13T06:26:44.231Z,81.96
2024-02-13T06:31:45.873Z,81.65
2024-02-13T06:36:47.724Z,81.72
2024-02-13T06:41:49.560Z,81.37
2024-02-13T06:46:51.351Z,81.30
2024-02-13T06:51:52.986Z,80.60
2024-02-13T06:56:54.698Z,82.00
2024-02-13T07:01:56.535Z,80.46
2024-02-13T07:07:08.940Z,80.55
2024-02-13T07:12:21.253Z,79.99
2024-02-13T07:17:23.789Z,80.49
2024-02-13T07:22:25.676Z,80.47
2024-02-13T07:27:27.454Z,81.14
2024-02-13T07:32:29.181Z,79.28
2024-02-13T07:37:33.963Z,80.62
2024-02-13T07:42:35.609Z,80.38
2024-02-13T07:47:38.152Z,79.92
2024-02-13T07:52:40.571Z,80.31
2024-02-13T07:57:42.790Z,79.38
2024-02-13T08:02:45.109Z,77.75
2024-02-13T08:07:46.801Z,76.75
2024-02-13T08:12:48.423Z,76.82
2024-02-13T08:17:50.399Z,76.11
2024-02-13T08:22:52.450Z,76.34
2024-02-13T08:27:54.117Z,75.71
2024-02-13T08:32:56.009Z,75.68
2024-02-13T08:37:58.442Z,76.03
2024-02-13T08:43:00.189Z,75.34
2024-02-13T08:48:01.957Z,75.27
2024-02-13T08:53:03.921Z,75.48
2024-02-13T08:58:05.534Z,75.00
2024-02-13T09:03:07.178Z,74.51
2024-02-13T09:08:08.779Z,73.45
2024-02-13T09:13:10.565Z,74.96
2024-02-13T09:18:12.391Z,75.00
2024-02-13T09:23:15.665Z,74.37
2024-02-13T09:28:18.053Z,72.71
2024-02-13T09:33:22.440Z,72.43
2024-02-13T09:38:24.435Z,72.66
2024-02-13T09:43:26.140Z,71.78
2024-02-13T09:48:28.353Z,72.29
2024-02-13T09:53:30.487Z,71.46
2024-02-13T09:58:33.457Z,71.64
2024-02-13T10:03:38.090Z,72.20
2024-02-13T10:08:41.184Z,70.17
2024-02-13T10:13:47.158Z,69.79
2024-02-13T10:18:58.961Z,69.72
2024-02-13T10:24:10.183Z,68.78
2024-02-13T10:29:13.504Z,67.62
2024-02-13T10:34:15.295Z,68.47
2024-02-13T10:39:20.563Z,68.70
2024-02-13T10:44:24.388Z,66.29
2024-02-13T10:49:40.794Z,65.25
2024-02-13T10:54:48.175Z,64.42
2024-02-13T10:59:50.409Z,63.77
2024-02-13T11:04:52.731Z,62.99
2024-02-13T11:09:54.967Z,64.30
2024-02-13T11:15:16.653Z,63.91
2024-02-13T11:20:23.330Z,63.75
2024-02-13T11:25:28.545Z,63.62
2024-02-13T11:30:30.444Z,63.35
2024-02-13T11:35:43.076Z,64.13
2024-02-13T11:40:45.419Z,65.58
2024-02-13T11:45:47.485Z,65.23
2024-02-13T11:50:49.277Z,64.70
2024-02-13T11:55:56.070Z,66.09
2024-02-13T12:01:07.268Z,65.92
2024-02-13T12:06:10.737Z,64.99
2024-02-13T12:11:13.044Z,64.46
2024-02-13T12:16:15.699Z,64.36
2024-02-13T12:21:17.655Z,63.32
2024-02-13T12:26:19.344Z,63.42
2024-02-13T12:31:23.020Z,63.79
2024-02-13T12:36:25.594Z,61.81
2024-02-13T12:41:27.305Z,63.68
2024-02-13T12:46:35.945Z,63.72
2024-02-13T12:51:40.467Z,61.77
2024-02-13T12:56:42.393Z,62.43
2024-02-13T13:01:47.814Z,60.44
2024-02-13T13:06:51.934Z,58.99
2024-02-13T13:11:53.794Z,60.97
2024-02-13T13:16:56.595Z,60.15
2024-02-13T13:21:59.190Z,60.40
2024-02-13T13:27:02.002Z,59.94
2024-02-13T13:32:06.585Z,60.14
2024-02-13T13:37:08.650Z,60.54
2024-02-13T13:42:10.892Z,59.23
2024-02-13T13:47:12.842Z,59.50
2024-02-13T13:52:14.497Z,58.75
2024-02-13T13:57:16.470Z,60.48
2024-02-13T14:02:18.113Z,58.66
2024-02-13T14:07:21.047Z,56.55
2024-02-13T14:12:23.000Z,58.25
2024-02-13T14:17:24.869Z,57.87
2024-02-13T14:22:28.035Z,57.93
2024-02-13T14:27:29.764Z,57.97
2024-02-13T14:32:31.500Z,59.42
2024-02-13T14:37:33.161Z,59.43
2024-02-13T14:42:34.916Z,57.25
2024-02-13T14:47:40.174Z,58.32
2024-02-13T14:52:42.920Z,58.91
2024-02-13T14:57:52.315Z,58.55
2024-02-13T15:03:02.344Z,58.81
2024-02-13T15:08:04.697Z,59.28
2024-02-13T15:13:07.954Z,58.90
2024-02-13T15:18:09.685Z,59.40
2024-02-13T15:23:13.827Z,60.42
2024-02-13T15:28:16.943Z,60.46
2024-02-13T15:33:21.881Z,61.64
2024-02-13T15:38:44.252Z,62.02
2024-02-13T15:44:04.711Z,62.54
2024-02-13T15:49:06.564Z,62.97
2024-02-13T15:54:09.954Z,63.73
2024-02-13T15:59:11.766Z,64.39
2024-02-13T16:04:13.611Z,63.59
2024-02-13T16:09:15.456Z,63.69
2024-02-13T16:14:18.502Z,64.02
2024-02-13T16:19:20.290Z,64.61
2024-02-13T16:24:22.052Z,64.98
2024-02-13T16:29:24.594Z,65.90
2024-02-13T16:34:26.763Z,65.88
2024-02-13T16:39:28.458Z,65.48
2024-02-13T16:44:30.153Z,65.71
2024-02-13T16:49:31.907Z,66.29
2024-02-13T16:54:33.811Z,65.89
2024-02-13T16:59:35.524Z,66.52
2024-02-13T17:04:37.178Z,67.06
2024-02-13T17:09:38.843Z,67.49
2024-02-13T17:14:41.723Z,68.12
2024-02-13T17:19:43.867Z,68.24
2024-02-13T17:24:47.597Z,68.62
2024-02-13T17:29:49.273Z,69.71
2024-02-13T17:34:51.078Z,70.13
2024-02-13T17:39:52.829Z,69.25
2024-02-13T17:44:54.487Z,69.25
2024-02-13T17:49:56.182Z,69.36
2024-02-13T17:54:57.800Z,69.22
2024-02-13T17:59:59.480Z,69.35
2024-02-13T18:05:01.338Z,69.20
2024-02-13T18:10:04.152Z,68.77
2024-02-13T18:15:07.250Z,69.18
2024-02-13T18:20:15.528Z,69.22
2024-02-13T18:25:17.936Z,70.17
2024-02-13T18:30:19.635Z,70.65
2024-02-13T18:35:21.468Z,71.35
2024-02-13T18:40:23.712Z,70.92
2024-02-13T18:45:25.483Z,71.59
2024-02-13T18:50:28.765Z,72.43
2024-02-13T18:55:30.429Z,71.94
2024-02-13T19:00:32.137Z,72.28
2024-02-13T19:05:34.011Z,72.68
2024-02-13T19:10:37.985Z,72.74
2024-02-13T19:15:40.060Z,71.21
2024-02-13T19:20:41.783Z,72.15
2024-02-13T19:25:43.607Z,72.58
2024-02-13T19:30:47.858Z,73.50
2024-02-13T19:35:52.378Z,72.53
2024-02-13T19:40:54.029Z,73.70
2024-02-13T19:45:56.818Z,73.17
2024-02-13T19:50:58.570Z,73.91
2024-02-13T19:56:00.388Z,74.56
2024-02-13T20:01:02.104Z,74.60
2024-02-13T20:06:04.008Z,74.72
2024-02-13T20:11:05.774Z,74.63
2024-02-13T20:16:07.700Z,75.21
2024-02-13T20:21:09.365Z,77.15
2024-02-13T20:26:11.170Z,77.45
2024-02-13T20:31:12.994Z,79.51
2024-02-13T20:36:14.661Z,78.18
2024-02-13T20:41:18.942Z,78.11
2024-02-13T20:46:20.687Z,79.22
2024-02-13T20:51:22.334Z,79.22
2024-02-13T20:56:23.965Z,79.04
2024-02-13T21:01:28.368Z,78.92
2024-02-13T21:06:30.433Z,78.87
2024-02-13T21:11:35.666Z,79.39
2024-02-13T21:16:37.363Z,79.25
2024-02-13T21:22:01.100Z,79.73
2024-02-13T21:27:03.205Z,79.55
2024-02-13T21:32:05.926Z,77.81
2024-02-13T21:37:07.624Z,79.82
2024-02-13T21:42:11.026Z,79.94
2024-02-13T21:47:12.687Z,79.96
2024-02-13T21:52:14.337Z,80.34
2024-02-13T21:57:16.024Z,80.32
2024-02-13T22:02:17.744Z,80.00
2024-02-13T22:07:19.438Z,79.67
2024-02-13T22:12:21.149Z,80.31
2024-02-13T22:17:23.008Z,81.07
2024-02-13T22:22:24.760Z,80.17
2024-02-13T22:27:29.211Z,80.80
2024-02-13T22:32:32.870Z,81.12
2024-02-13T22:37:35.426Z,80.55
2024-02-13T22:42:37.076Z,80.48
2024-02-13T22:47:39.114Z,80.60
2024-02-13T22:52:40.923Z,80.78
2024-02-13T22:57:42.762Z,80.63
2024-02-13T23:02:45.371Z,80.69
2024-02-13T23:07:47.198Z,80.87
2024-02-13T23:12:48.784Z,81.25
2024-02-13T23:17:50.630Z,80.56
2024-02-13T23:22:52.340Z,81.15
2024-02-13T23:27:54.051Z,80.43
2024-02-13T23:32:56.155Z,81.11
2024-02-13T23:37:57.841Z,82.18
2024-02-13T23:43:00.278Z,81.87
2024-02-13T23:48:02.133Z,80.83
2024-02-13T23:53:04.102Z,81.57
2024-02-13T23:58:05.777Z,81.35
